Time;durP1;ratioP1;P1;durP2;ratioP2;P2;SDS_P1;SDS_P2;PMS_P1;PMS_P2;Temp;Humidity;BMP_temperature;BMP_pressure;BME280_temperature;BME280_humidity;BME280_pressure;Samples;Min_cycle;Max_cycle;Signal;HPM_P1;HPM_P2
2022/03/14 00:00:10;;;;;;;1.38;0.90;;;11.90;74.60;;;;;;10001057;28;20941;-61
2022/03/14 00:05:05;;;;;;;1.20;0.70;;;11.80;74.70;;;;;;10010123;28;20045;-61
2022/03/14 00:09:55;;;;;;;1.20;0.70;;;11.70;74.80;;;;;;10014203;28;20026;-61
2022/03/14 00:14:46;;;;;;;0.82;0.70;;;11.60;75.60;;;;;;10008046;28;20103;-62
2022/03/14 00:19:40;;;;;;;0.50;0.50;;;11.40;76.00;;;;;;10004435;28;20507;-60
2022/03/14 00:24:30;;;;;;;1.05;0.95;;;11.50;75.30;;;;;;10012246;28;20046;-62
2022/03/14 00:29:21;;;;;;;0.85;0.60;;;11.50;75.40;;;;;;10018790;28;20487;-61
2022/03/14 00:34:14;;;;;;;0.70;0.40;;;11.60;75.50;;;;;;10002322;28;20066;-61
2022/03/14 00:39:05;;;;;;;0.70;0.60;;;11.60;75.40;;;;;;10011930;28;20080;-62
2022/03/14 00:43:56;;;;;;;0.70;0.60;;;11.50;75.60;;;;;;10013085;28;20080;-62
2022/03/14 00:48:46;;;;;;;0.95;0.63;;;11.50;76.00;;;;;;10011719;28;20053;-61
2022/03/14 00:53:37;;;;;;;1.98;0.63;;;11.40;76.30;;;;;;10012495;28;20071;-61
2022/03/14 00:58:29;;;;;;;0.80;0.50;;;11.40;76.60;;;;;;10016393;28;20400;-62
2022/03/14 01:03:19;;;;;;;1.23;0.35;;;11.40;77.10;;;;;;10012610;28;20180;-60
2022/03/14 01:08:11;;;;;;;0.43;0.43;;;11.30;77.10;;;;;;10012244;28;20125;-61
2022/03/14 01:13:03;;;;;;;0.40;0.20;;;11.30;78.00;;;;;;10017108;28;20416;-60
2022/03/14 01:17:54;;;;;;;0.38;0.32;;;11.20;77.70;;;;;;10004811;28;20156;-61
2022/03/14 01:22:45;;;;;;;0.20;0.20;;;11.10;78.50;;;;;;9998800;28;20578;-62
2022/03/14 01:27:36;;;;;;;0.30;0.30;;;11.10;78.10;;;;;;10001093;28;20045;-61
2022/03/14 01:32:26;;;;;;;1.42;0.40;;;11.10;78.40;;;;;;10007851;28;20397;-62
2022/03/14 01:37:18;;;;;;;0.57;0.30;;;11.00;79.50;;;;;;9999290;28;20800;-61
2022/03/14 01:42:15;;;;;;;0.10;0.10;;;10.90;79.00;;;;;;10006437;28;20044;-61
2022/03/14 01:47:06;;;;;;;0.35;0.20;;;10.90;79.90;;;;;;10005079;28;20026;-61
2022/03/14 01:51:58;;;;;;;0.15;0.10;;;10.90;79.00;;;;;;10002506;28;20037;-61
2022/03/14 01:56:50;;;;;;;0.20;0.20;;;10.90;79.40;;;;;;10003453;28;20069;-62
2022/03/14 02:01:42;;;;;;;0.57;0.20;;;10.80;79.50;;;;;;9997672;28;20042;-61
2022/03/14 02:06:35;;;;;;;0.15;0.15;;;10.70;80.50;;;;;;10015636;28;20117;-61
2022/03/14 02:11:26;;;;;;;1.05;0.20;;;10.70;80.80;;;;;;10006202;28;20033;-62
2022/03/14 02:16:17;;;;;;;0.17;0.17;;;10.70;81.10;;;;;;10010321;28;20128;-62
2022/03/14 02:21:13;;;;;;;0.95;0.20;;;10.60;81.20;;;;;;10006555;28;20042;-62
2022/03/14 02:26:03;;;;;;;1.20;0.47;;;10.60;81.60;;;;;;10009903;28;20038;-63
2022/03/14 02:30:54;;;;;;;1.85;0.80;;;10.60;81.60;;;;;;10005170;28;20100;-61
2022/03/14 02:35:46;;;;;;;1.38;0.82;;;10.60;81.90;;;;;;10010929;28;20117;-62
2022/03/14 02:40:39;;;;;;;1.00;0.63;;;10.40;82.20;;;;;;10007361;28;20046;-61
2022/03/14 02:45:30;;;;;;;1.10;0.80;;;10.40;82.50;;;;;;10007790;28;20084;-63
2022/03/14 02:50:21;;;;;;;1.75;0.93;;;10.30;82.90;;;;;;10009653;28;20587;-61
2022/03/14 02:55:13;;;;;;;0.52;0.38;;;10.40;83.30;;;;;;10014087;28;20156;-61
2022/03/14 03:00:05;;;;;;;1.58;1.00;;;10.30;83.50;;;;;;10009376;28;20500;-61
2022/03/14 03:04:57;;;;;;;1.02;0.60;;;10.20;85.10;;;;;;10009562;28;20449;-62
2022/03/14 03:09:47;;;;;;;0.77;0.60;;;10.20;84.10;;;;;;10013959;28;20113;-62
2022/03/14 03:14:38;;;;;;;0.50;0.35;;;10.20;84.20;;;;;;10010688;28;20658;-62
2022/03/14 03:19:29;;;;;;;2.15;0.40;;;10.20;84.30;;;;;;10003316;28;20037;-60
2022/03/14 03:24:19;;;;;;;1.23;0.57;;;10.30;84.40;;;;;;9995548;28;20375;-61
2022/03/14 03:29:10;;;;;;;0.98;0.55;;;10.30;84.30;;;;;;10015005;28;20137;-61
2022/03/14 03:34:01;;;;;;;0.73;0.47;;;10.20;84.60;;;;;;10016299;28;20250;-63
2022/03/14 03:38:52;;;;;;;1.35;0.52;;;10.20;85.80;;;;;;10013510;28;20044;-60
2022/03/14 03:43:43;;;;;;;0.75;0.57;;;10.20;85.50;;;;;;10009922;28;20060;-61
2022/03/14 03:48:33;;;;;;;0.77;0.50;;;10.10;85.60;;;;;;10011127;28;20018;-61
2022/03/14 03:53:24;;;;;;;1.83;0.55;;;10.00;85.70;;;;;;10004961;28;20038;-61
2022/03/14 03:58:15;;;;;;;0.43;0.43;;;10.00;85.50;;;;;;10009250;28;20033;-61
2022/03/14 04:03:06;;;;;;;0.80;0.45;;;9.90;86.20;;;;;;10004316;28;20045;-61
2022/03/14 04:08:01;;;;;;;1.30;0.73;;;10.00;86.10;;;;;;10008529;28;20041;-62
2022/03/14 04:12:52;;;;;;;1.30;0.80;;;10.10;85.80;;;;;;10005028;28;20142;-61
2022/03/14 04:17:42;;;;;;;0.35;0.25;;;10.00;86.00;;;;;;10005182;28;20615;-60
2022/03/14 04:22:37;;;;;;;2.13;0.70;;;10.00;86.00;;;;;;9997108;28;20042;-61
2022/03/14 04:27:28;;;;;;;1.02;0.43;;;10.00;86.30;;;;;;10005260;28;20076;-61
2022/03/14 04:32:18;;;;;;;1.08;0.47;;;10.00;86.20;;;;;;10001712;28;20046;-62
2022/03/14 04:37:10;;;;;;;2.50;0.43;;;10.10;86.00;;;;;;10013400;28;20503;-61
2022/03/14 04:42:00;;;;;;;3.35;1.00;;;10.10;86.10;;;;;;10006135;28;20038;-61
2022/03/14 04:46:51;;;;;;;2.42;0.50;;;10.10;86.00;;;;;;10013214;28;20338;-61
2022/03/14 04:51:42;;;;;;;0.50;0.30;;;10.10;86.60;;;;;;10007862;28;20049;-62
2022/03/14 04:56:33;;;;;;;2.17;0.60;;;10.00;86.20;;;;;;9995408;28;20014;-63
2022/03/14 05:01:24;;;;;;;2.00;0.40;;;9.90;86.50;;;;;;10006323;28;20238;-62
2022/03/14 05:06:16;;;;;;;1.35;0.32;;;10.00;86.40;;;;;;10011037;28;20029;-61
2022/03/14 05:11:07;;;;;;;1.27;0.63;;;9.90;86.30;;;;;;10006231;28;20129;-61
2022/03/14 05:15:58;;;;;;;2.40;0.60;;;9.90;86.30;;;;;;9996439;28;20121;-61
2022/03/14 05:20:48;;;;;;;1.40;0.52;;;9.90;86.10;;;;;;9993997;28;20109;-61
2022/03/14 05:25:40;;;;;;;1.33;0.50;;;9.90;86.20;;;;;;9998844;28;20049;-61
2022/03/14 05:30:31;;;;;;;1.10;0.40;;;10.00;85.90;;;;;;10011075;28;20105;-64
2022/03/14 05:35:22;;;;;;;0.68;0.35;;;9.90;86.10;;;;;;9987153;28;20035;-61
2022/03/14 05:40:15;;;;;;;0.95;0.55;;;9.90;86.10;;;;;;10005849;28;20026;-62
2022/03/14 05:45:08;;;;;;;1.10;0.47;;;9.90;85.80;;;;;;10019459;28;20034;-60
2022/03/14 05:49:59;;;;;;;1.63;0.77;;;9.80;85.80;;;;;;10010849;28;20038;-61
2022/03/14 05:54:50;;;;;;;1.33;0.73;;;9.80;85.70;;;;;;10005734;28;20018;-60
2022/03/14 05:59:40;;;;;;;2.35;0.70;;;9.90;85.50;;;;;;10019115;28;20215;-62
2022/03/14 06:04:31;;;;;;;1.60;0.70;;;10.00;85.20;;;;;;9999303;28;20038;-61
2022/03/14 06:09:25;;;;;;;1.13;0.50;;;9.80;84.80;;;;;;10015697;28;20397;-60
2022/03/14 06:14:15;;;;;;;1.25;0.45;;;9.70;85.10;;;;;;10005153;28;20061;-60
2022/03/14 06:19:06;;;;;;;1.35;0.50;;;9.80;85.40;;;;;;10003313;28;20034;-61
2022/03/14 06:23:57;;;;;;;0.90;0.50;;;9.80;85.30;;;;;;10008639;28;20550;-61
2022/03/14 06:28:48;;;;;;;0.85;0.40;;;9.90;85.20;;;;;;10013274;28;20062;-61
2022/03/14 06:33:38;;;;;;;0.85;0.50;;;9.80;85.20;;;;;;10011812;28;20125;-61
2022/03/14 06:38:31;;;;;;;1.67;0.40;;;9.90;86.20;;;;;;10013200;28;20033;-61
2022/03/14 06:43:22;;;;;;;0.43;0.35;;;9.90;85.90;;;;;;10004331;28;20034;-61
2022/03/14 06:48:13;;;;;;;0.82;0.50;;;9.70;86.30;;;;;;10010234;28;20030;-62
2022/03/14 06:53:04;;;;;;;0.73;0.50;;;9.80;86.20;;;;;;10009512;28;20387;-61
2022/03/14 06:57:55;;;;;;;1.50;0.77;;;9.60;86.70;;;;;;10005651;28;20034;-61
2022/03/14 07:02:45;;;;;;;1.05;0.60;;;9.80;86.60;;;;;;10002839;28;20034;-59
2022/03/14 07:07:37;;;;;;;3.22;0.52;;;9.70;86.40;;;;;;10012932;28;20026;-61
2022/03/14 07:12:27;;;;;;;0.88;0.63;;;9.70;86.60;;;;;;10015990;28;20472;-61
2022/03/14 07:17:20;;;;;;;1.70;1.10;;;9.80;86.70;;;;;;10002142;28;20090;-60
2022/03/14 07:22:11;;;;;;;0.80;0.65;;;9.90;86.50;;;;;;10013630;28;20042;-62
2022/03/14 07:27:02;;;;;;;2.03;0.68;;;10.00;86.40;;;;;;10009123;28;20034;-65
2022/03/14 07:31:53;;;;;;;5.28;1.73;;;10.10;86.70;;;;;;10009558;28;20508;-62
2022/03/14 07:36:44;;;;;;;3.80;0.98;;;10.00;86.80;;;;;;10014594;28;20380;-59
2022/03/14 07:41:36;;;;;;;1.63;0.70;;;10.10;86.80;;;;;;10010969;28;20536;-64
2022/03/14 07:46:28;;;;;;;2.97;0.80;;;10.10;86.70;;;;;;10013046;28;20160;-64
2022/03/14 07:51:19;;;;;;;4.32;0.95;;;10.20;86.70;;;;;;10012172;28;20033;-62
2022/03/14 07:56:11;;;;;;;1.00;0.52;;;10.20;86.80;;;;;;10013781;28;20520;-62
2022/03/14 08:01:01;;;;;;;1.23;0.60;;;10.60;86.50;;;;;;10009451;28;20080;-60
2022/03/14 08:05:55;;;;;;;3.17;1.15;;;10.60;86.20;;;;;;10011960;28;20108;-64
2022/03/14 08:10:47;;;;;;;1.10;0.65;;;10.50;86.40;;;;;;10009546;28;20125;-61
2022/03/14 08:15:38;;;;;;;1.50;0.85;;;10.70;86.20;;;;;;10010640;28;20056;-62
2022/03/14 08:20:29;;;;;;;5.00;1.23;;;10.60;86.30;;;;;;10012591;28;20129;-62
2022/03/14 08:25:23;;;;;;;1.85;0.98;;;10.80;86.10;;;;;;10009541;28;20046;-61
2022/03/14 08:30:15;;;;;;;1.90;0.90;;;11.00;86.10;;;;;;10007277;28;20366;-63
2022/03/14 08:35:08;;;;;;;1.58;0.73;;;11.20;85.60;;;;;;10007846;28;20026;-62
2022/03/14 08:39:59;;;;;;;1.85;0.90;;;11.20;85.50;;;;;;10007513;28;20499;-60
2022/03/14 08:44:49;;;;;;;1.05;0.60;;;11.30;85.20;;;;;;10010697;28;20117;-63
2022/03/14 08:49:40;;;;;;;2.05;1.20;;;11.30;85.10;;;;;;10010235;28;20496;-59
2022/03/14 08:54:31;;;;;;;1.48;0.75;;;11.00;85.40;;;;;;10009835;28;20026;-61
2022/03/14 08:59:21;;;;;;;1.27;1.10;;;11.20;84.90;;;;;;10008517;28;20026;-61
2022/03/14 09:04:12;;;;;;;1.83;0.90;;;11.20;84.70;;;;;;10008667;28;20228;-62
2022/03/14 09:09:03;;;;;;;1.90;0.82;;;11.40;84.20;;;;;;10007901;28;20128;-60
2022/03/14 09:13:54;;;;;;;2.10;0.65;;;11.60;83.90;;;;;;10004393;28;20054;-59
2022/03/14 09:18:45;;;;;;;1.30;0.80;;;11.60;83.60;;;;;;10012333;28;20392;-60
2022/03/14 09:23:36;;;;;;;1.98;1.00;;;11.70;83.20;;;;;;10000103;28;20144;-63
2022/03/14 09:28:27;;;;;;;3.13;0.82;;;11.90;82.90;;;;;;10008894;28;20029;-59
2022/03/14 09:33:18;;;;;;;3.45;0.70;;;12.00;82.20;;;;;;9993862;28;20406;-64
2022/03/14 09:38:11;;;;;;;3.25;0.70;;;12.10;81.70;;;;;;10006139;28;20026;-64
2022/03/14 09:43:02;;;;;;;1.67;0.70;;;12.10;81.00;;;;;;10009917;28;20666;-63
2022/03/14 09:48:03;;;;;;;5.13;1.10;;;12.20;80.90;;;;;;9991030;28;20038;-63
2022/03/14 09:52:55;;;;;;;1.15;0.80;;;12.40;80.30;;;;;;10009035;28;20116;-64
2022/03/14 09:57:47;;;;;;;2.10;0.70;;;12.40;80.30;;;;;;9998422;28;20035;-62
2022/03/14 10:02:39;;;;;;;4.70;1.58;;;12.40;78.80;;;;;;9996101;28;20034;-66
2022/03/14 10:07:31;;;;;;;4.18;0.80;;;12.40;78.70;;;;;;10005136;28;20038;-63
2022/03/14 10:12:22;;;;;;;5.43;0.90;;;12.50;78.10;;;;;;10009306;28;20034;-61
2022/03/14 10:17:13;;;;;;;2.25;0.63;;;12.60;77.60;;;;;;10030040;28;20100;-63
2022/03/14 10:22:15;;;;;;;2.28;1.30;;;12.70;77.30;;;;;;10043222;28;20034;-62
2022/03/14 10:27:06;;;;;;;1.10;0.80;;;12.50;76.60;;;;;;10037186;28;20034;-66
2022/03/14 10:31:57;;;;;;;1.38;0.60;;;12.60;76.30;;;;;;10031494;28;20045;-62
2022/03/14 10:36:51;;;;;;;2.95;0.93;;;12.90;75.30;;;;;;10032327;28;20013;-61
2022/03/14 10:41:45;;;;;;;1.50;0.70;;;13.20;75.10;;;;;;10029439;28;20571;-62
2022/03/14 10:46:39;;;;;;;2.72;0.70;;;13.10;74.50;;;;;;10022622;28;20029;-62
2022/03/14 10:51:30;;;;;;;1.53;0.60;;;13.20;74.50;;;;;;10025137;28;20125;-63
2022/03/14 10:56:27;;;;;;;3.85;0.82;;;13.40;74.10;;;;;;10025966;28;20377;-61
2022/03/14 11:01:18;;;;;;;1.58;0.90;;;13.10;74.40;;;;;;10027139;28;20036;-72
2022/03/14 11:06:10;;;;;;;3.72;0.82;;;13.40;74.00;;;;;;10008680;28;20108;-68
2022/03/14 11:11:07;;;;;;;2.08;0.70;;;13.60;73.40;;;;;;10027825;28;20076;-69
2022/03/14 11:15:58;;;;;;;1.42;0.75;;;13.70;72.90;;;;;;10021722;28;20053;-67
2022/03/14 11:20:48;;;;;;;1.52;0.60;;;13.80;72.50;;;;;;10013659;28;20076;-64
2022/03/14 11:25:44;;;;;;;3.58;0.80;;;14.00;72.20;;;;;;10013762;28;20525;-63
2022/03/14 11:30:38;;;;;;;1.98;1.20;;;13.90;71.80;;;;;;10005340;28;20061;-63
2022/03/14 11:35:30;;;;;;;1.88;0.85;;;13.90;71.50;;;;;;10005375;28;20091;-63
2022/03/14 11:40:21;;;;;;;1.92;0.68;;;14.30;70.80;;;;;;9989576;28;20026;-64
2022/03/14 11:45:12;;;;;;;2.13;0.95;;;14.80;69.90;;;;;;10004408;28;20099;-64
2022/03/14 11:50:04;;;;;;;1.35;0.65;;;15.10;69.60;;;;;;9999494;28;20124;-64
2022/03/14 11:55:00;;;;;;;3.38;0.82;;;15.20;69.20;;;;;;9978889;28;20346;-64
2022/03/14 11:59:50;;;;;;;1.92;0.73;;;15.20;69.00;;;;;;10010859;28;20029;-64
2022/03/14 12:04:41;;;;;;;1.73;0.85;;;15.50;68.40;;;;;;10009289;28;20423;-64
2022/03/14 12:09:34;;;;;;;2.30;0.90;;;15.60;67.90;;;;;;10001155;28;20101;-64
2022/03/14 12:14:57;;;;;;;1.40;0.68;;;15.60;67.30;;;;;;9983211;28;20046;-63
2022/03/14 12:19:51;;;;;;;2.08;0.70;;;15.70;65.60;;;;;;9976944;28;20037;-65
2022/03/14 12:24:44;;;;;;;2.50;1.08;;;15.60;66.30;;;;;;10012607;28;20458;-65
2022/03/14 12:29:40;;;;;;;2.03;0.82;;;15.50;65.90;;;;;;10011217;28;20078;-66
2022/03/14 12:34:31;;;;;;;7.72;1.45;;;15.40;64.60;;;;;;10003653;28;20381;-64
2022/03/14 12:39:25;;;;;;;2.15;1.08;;;15.40;63.90;;;;;;9994157;28;20034;-63
2022/03/14 12:44:27;;;;;;;1.23;0.57;;;15.50;63.50;;;;;;9988056;28;20464;-64
2022/03/14 12:49:48;;;;;;;1.60;1.00;;;15.90;62.90;;;;;;9989688;28;20109;-64
2022/03/14 12:54:39;;;;;;;2.88;1.00;;;16.30;62.50;;;;;;10000969;28;20076;-62
2022/03/14 12:59:30;;;;;;;1.90;0.80;;;16.80;62.60;;;;;;10011291;28;20381;-61
2022/03/14 13:04:22;;;;;;;2.95;1.00;;;17.30;62.40;;;;;;10003914;28;20029;-62
2022/03/14 13:09:12;;;;;;;5.38;0.80;;;17.80;62.60;;;;;;10007180;28;20044;-61
2022/03/14 13:14:09;;;;;;;2.53;1.35;;;18.30;62.90;;;;;;10013953;28;20514;-64
2022/03/14 13:19:00;;;;;;;1.90;0.77;;;18.70;62.10;;;;;;10035972;28;20017;-64
2022/03/14 13:23:58;;;;;;;2.67;1.10;;;18.90;63.30;;;;;;10011362;28;20041;-61
2022/03/14 13:28:51;;;;;;;3.25;0.88;;;19.20;63.00;;;;;;10038001;28;20025;-62
2022/03/14 13:33:43;;;;;;;3.15;0.95;;;19.40;63.10;;;;;;10034640;28;20036;-61
2022/03/14 13:38:38;;;;;;;2.00;0.82;;;19.70;62.30;;;;;;10025765;28;20025;-61
2022/03/14 13:43:29;;;;;;;1.75;0.98;;;20.10;61.70;;;;;;10037603;28;20053;-62
2022/03/14 13:48:21;;;;;;;3.13;0.90;;;21.20;59.40;;;;;;10036670;28;20335;-65
2022/03/14 13:53:22;;;;;;;3.53;1.13;;;23.20;55.60;;;;;;10020516;28;20412;-62
2022/03/14 13:58:26;;;;;;;1.02;0.68;;;25.00;49.50;;;;;;10045263;28;20128;-63
2022/03/14 14:03:20;;;;;;;;;;;25.20;46.70;;;;;;10042329;28;20050;-63
2022/03/14 14:08:11;;;;;;;1.13;0.60;;;24.30;45.40;;;;;;10039129;28;19920;-63
2022/03/14 14:13:04;;;;;;;1.77;0.80;;;22.20;50.00;;;;;;10044749;28;20021;-63
2022/03/14 14:17:54;;;;;;;2.53;1.00;;;22.70;49.00;;;;;;10029578;28;20041;-61
2022/03/14 14:22:55;;;;;;;3.28;0.95;;;23.50;47.80;;;;;;10036372;28;20418;-60
2022/03/14 14:28:02;;;;;;;1.55;0.77;;;24.00;46.30;;;;;;10031325;28;20084;-65
2022/03/14 14:32:53;;;;;;;3.90;0.90;;;24.20;44.90;;;;;;9999778;28;20090;-64
2022/03/14 14:37:43;;;;;;;3.03;1.38;;;24.50;44.10;;;;;;10022698;28;20036;-61
2022/03/14 14:42:34;;;;;;;2.88;1.35;;;24.40;44.20;;;;;;10011013;28;20504;-61
2022/03/14 14:47:25;;;;;;;3.65;1.80;;;24.80;42.50;;;;;;9994187;28;20113;-63
2022/03/14 14:52:16;;;;;;;5.93;1.67;;;25.30;41.20;;;;;;10015924;28;20731;-62
2022/03/14 14:57:07;;;;;;;2.15;1.17;;;26.10;40.30;;;;;;10027265;28;20113;-62
2022/03/14 15:01:58;;;;;;;4.82;1.20;;;27.40;38.70;;;;;;10009181;28;20041;-62
2022/03/14 15:06:49;;;;;;;3.05;1.13;;;27.80;37.70;;;;;;10017415;28;20041;-63
2022/03/14 15:11:40;;;;;;;5.05;2.28;;;28.40;36.60;;;;;;10013149;28;20096;-61
2022/03/14 15:16:31;;;;;;;3.55;1.15;;;29.50;35.20;;;;;;10008446;28;20603;-62
2022/03/14 15:21:22;;;;;;;4.38;1.40;;;29.50;34.50;;;;;;10006372;28;20327;-64
2022/03/14 15:26:13;;;;;;;1.27;0.80;;;28.80;34.40;;;;;;10011620;28;20068;-63
2022/03/14 15:31:04;;;;;;;1.70;1.08;;;29.30;33.70;;;;;;10011523;28;20468;-63
2022/03/14 15:35:54;;;;;;;5.10;1.35;;;28.60;33.30;;;;;;10010487;28;20057;-63
2022/03/14 15:40:45;;;;;;;4.03;0.98;;;28.60;33.20;;;;;;10009771;28;20329;-60
2022/03/14 15:45:36;;;;;;;3.33;1.30;;;28.80;32.70;;;;;;10008778;28;20551;-62
2022/03/14 15:50:27;;;;;;;3.20;1.83;;;27.70;32.50;;;;;;10012305;28;20144;-65
2022/03/14 15:55:18;;;;;;;4.50;1.70;;;28.40;32.60;;;;;;10013398;28;20460;-59
2022/03/14 16:00:10;;;;;;;4.60;1.40;;;28.20;32.30;;;;;;10011517;28;20116;-59
2022/03/14 16:05:04;;;;;;;6.35;2.70;;;27.20;32.90;;;;;;10011581;28;20072;-61
2022/03/14 16:09:58;;;;;;;2.63;1.23;;;27.10;33.00;;;;;;10007274;28;20493;-60
2022/03/14 16:14:49;;;;;;;4.20;1.50;;;26.60;33.40;;;;;;10001169;28;20072;-61
2022/03/14 16:19:40;;;;;;;9.10;2.13;;;24.60;34.40;;;;;;10000444;28;20601;-60
2022/03/14 16:24:31;;;;;;;3.88;1.10;;;25.30;34.00;;;;;;10011942;28;20046;-63
2022/03/14 16:29:22;;;;;;;5.38;2.28;;;25.80;33.20;;;;;;10006713;28;20089;-61
2022/03/14 16:34:12;;;;;;;4.35;1.67;;;22.60;36.10;;;;;;10011480;28;20498;-62
2022/03/14 16:39:03;;;;;;;2.90;1.40;;;20.20;38.40;;;;;;10007564;28;20089;-62
2022/03/14 16:43:54;;;;;;;3.35;1.10;;;19.00;39.20;;;;;;10001211;28;20038;-63
2022/03/14 16:48:45;;;;;;;2.28;0.98;;;18.30;39.70;;;;;;10007472;28;20580;-60
2022/03/14 16:53:35;;;;;;;3.40;1.42;;;17.90;39.70;;;;;;10007702;28;20029;-60
2022/03/14 16:58:26;;;;;;;4.53;1.38;;;17.70;39.70;;;;;;9998004;28;20122;-67
2022/03/14 17:03:17;;;;;;;3.70;0.98;;;17.50;39.80;;;;;;10009203;28;20041;-62
2022/03/14 17:08:09;;;;;;;4.85;1.10;;;17.20;40.30;;;;;;10008477;28;20029;-62
2022/03/14 17:13:00;;;;;;;4.30;1.77;;;17.10;40.50;;;;;;10011328;28;20373;-60
2022/03/14 17:17:54;;;;;;;3.70;1.42;;;16.90;40.80;;;;;;10002832;28;20033;-60
2022/03/14 17:22:45;;;;;;;4.93;1.40;;;16.60;41.30;;;;;;9999253;28;20040;-60
2022/03/14 17:27:35;;;;;;;1.70;0.82;;;16.50;41.50;;;;;;10008984;28;20040;-59
2022/03/14 17:32:26;;;;;;;3.92;1.15;;;16.30;42.10;;;;;;10020500;28;20048;-64
2022/03/14 17:37:17;;;;;;;2.92;1.42;;;16.10;42.30;;;;;;10020708;28;20054;-61
2022/03/14 17:42:07;;;;;;;5.35;1.38;;;16.00;42.60;;;;;;10019029;28;20030;-60
2022/03/14 17:46:58;;;;;;;2.33;1.50;;;15.80;43.00;;;;;;10015884;28;20028;-60
2022/03/14 17:51:49;;;;;;;5.35;1.17;;;15.70;43.30;;;;;;10022202;28;20034;-60
2022/03/14 17:56:40;;;;;;;2.80;1.08;;;15.70;43.60;;;;;;10020286;28;20018;-60
2022/03/14 18:01:31;;;;;;;2.97;1.08;;;15.60;43.80;;;;;;10020290;28;20731;-61
2022/03/14 18:06:22;;;;;;;4.15;2.30;;;15.50;44.30;;;;;;10018135;28;20097;-60
2022/03/14 18:11:12;;;;;;;4.43;1.50;;;15.40;44.50;;;;;;10021733;28;20076;-60
2022/03/14 18:16:06;;;;;;;3.92;1.60;;;15.30;45.40;;;;;;10038649;28;20052;-57
2022/03/14 18:20:58;;;;;;;5.50;2.92;;;15.10;45.00;;;;;;10051132;28;20037;-60
2022/03/14 18:25:49;;;;;;;5.40;2.03;;;15.10;45.30;;;;;;10048896;28;20048;-60
2022/03/14 18:30:41;;;;;;;3.25;1.42;;;14.90;45.50;;;;;;10046672;28;20028;-59
2022/03/14 18:35:36;;;;;;;2.88;1.80;;;14.80;46.10;;;;;;10010454;28;20592;-60
2022/03/14 18:40:26;;;;;;;3.00;1.55;;;14.70;46.10;;;;;;10022283;28;20041;-59
2022/03/14 18:45:17;;;;;;;2.15;1.30;;;14.80;46.50;;;;;;10016312;28;20045;-61
2022/03/14 18:50:09;;;;;;;5.95;2.22;;;14.70;46.50;;;;;;9999270;28;20032;-61
2022/03/14 18:55:00;;;;;;;5.13;2.22;;;14.70;47.00;;;;;;9998689;28;20050;-62
2022/03/14 18:59:51;;;;;;;5.72;1.27;;;14.60;46.90;;;;;;10013116;28;20109;-62
2022/03/14 19:04:43;;;;;;;2.40;1.23;;;14.50;47.50;;;;;;10019167;28;20034;-61
2022/03/14 19:09:34;;;;;;;4.22;1.27;;;14.50;47.60;;;;;;10014307;28;20444;-61
2022/03/14 19:14:26;;;;;;;4.22;1.33;;;14.50;48.00;;;;;;10009976;28;20080;-60
2022/03/14 19:19:18;;;;;;;3.80;1.45;;;14.40;48.30;;;;;;10011548;28;20038;-64
2022/03/14 19:24:09;;;;;;;4.40;1.98;;;14.30;48.40;;;;;;10015539;28;20397;-61
2022/03/14 19:29:00;;;;;;;3.03;1.83;;;14.20;48.90;;;;;;10012615;28;20025;-60
2022/03/14 19:33:52;;;;;;;3.67;1.65;;;14.10;49.10;;;;;;10011542;28;20033;-60
2022/03/14 19:38:42;;;;;;;2.20;1.50;;;14.10;49.40;;;;;;10015228;28;20087;-60
2022/03/14 19:43:33;;;;;;;5.55;2.30;;;13.90;49.90;;;;;;10009546;28;20099;-62
2022/03/14 19:48:25;;;;;;;4.47;1.35;;;13.90;49.90;;;;;;10012008;28;20025;-70
2022/03/14 19:53:17;;;;;;;3.22;1.52;;;13.80;50.20;;;;;;10004709;28;20108;-62
2022/03/14 19:58:08;;;;;;;6.10;2.10;;;13.70;50.50;;;;;;10018705;28;20030;-61
2022/03/14 20:02:59;;;;;;;3.70;1.48;;;13.70;50.90;;;;;;10012188;28;20041;-62
2022/03/14 20:07:49;;;;;;;4.63;1.75;;;13.60;51.10;;;;;;10026047;28;20018;-62
2022/03/14 20:12:40;;;;;;;6.82;1.77;;;13.60;51.40;;;;;;10006958;28;20030;-64
2022/03/14 20:17:31;;;;;;;3.38;1.30;;;13.50;51.60;;;;;;9996527;28;20046;-64
2022/03/14 20:22:21;;;;;;;3.38;1.67;;;13.40;52.20;;;;;;10003255;28;20516;-63
2022/03/14 20:27:13;;;;;;;4.05;1.52;;;13.30;52.60;;;;;;10015540;28;20030;-64
2022/03/14 20:32:04;;;;;;;3.35;1.50;;;13.20;52.90;;;;;;10016423;28;20033;-64
2022/03/14 20:36:55;;;;;;;2.85;1.98;;;13.20;53.10;;;;;;10011117;28;20030;-65
2022/03/14 20:41:49;;;;;;;4.55;2.50;;;13.20;53.20;;;;;;10011788;28;20049;-69
2022/03/14 20:46:39;;;;;;;5.97;2.35;;;13.20;53.20;;;;;;10011044;28;20030;-68
2022/03/14 20:51:30;;;;;;;5.40;1.33;;;13.10;53.70;;;;;;10022379;28;20395;-68
2022/03/14 20:56:22;;;;;;;2.30;1.27;;;13.10;53.90;;;;;;10003764;28;20041;-69
2022/03/14 21:01:13;;;;;;;4.75;1.40;;;13.10;54.00;;;;;;10013115;28;20117;-67
2022/03/14 21:06:05;;;;;;;4.90;2.03;;;13.10;53.90;;;;;;10009498;28;20120;-66
2022/03/14 21:10:58;;;;;;;5.50;1.48;;;13.00;55.10;;;;;;10009413;28;20179;-67
2022/03/14 21:15:49;;;;;;;2.67;1.92;;;13.00;54.60;;;;;;10000829;28;20187;-66
2022/03/14 21:20:40;;;;;;;2.65;1.45;;;12.90;54.80;;;;;;10014468;28;20053;-65
2022/03/14 21:25:30;;;;;;;2.72;1.25;;;12.80;55.00;;;;;;10013055;28;20080;-69
2022/03/14 21:30:22;;;;;;;3.08;1.33;;;12.70;55.50;;;;;;10008937;28;20072;-65
2022/03/14 21:35:15;;;;;;;5.00;1.75;;;12.60;56.20;;;;;;10010040;28;20079;-65
2022/03/14 21:40:08;;;;;;;4.97;1.80;;;12.50;56.40;;;;;;10011541;28;20341;-63
2022/03/14 21:45:00;;;;;;;3.60;1.90;;;12.40;56.50;;;;;;10005804;28;20042;-66
2022/03/14 21:49:51;;;;;;;2.28;1.45;;;12.30;57.00;;;;;;10000413;28;20037;-63
2022/03/14 21:54:41;;;;;;;5.03;1.98;;;12.30;57.20;;;;;;10009810;28;20026;-65
2022/03/14 21:59:32;;;;;;;2.95;1.63;;;12.30;57.30;;;;;;10009873;28;20095;-66
2022/03/14 22:04:23;;;;;;;4.50;1.98;;;12.30;57.30;;;;;;10006500;28;20042;-67
2022/03/14 22:09:14;;;;;;;4.78;1.88;;;12.20;57.80;;;;;;10011763;28;20018;-65
2022/03/14 22:14:06;;;;;;;3.13;2.28;;;12.20;58.00;;;;;;10010704;28;20092;-65
2022/03/14 22:18:58;;;;;;;5.13;1.80;;;12.10;58.50;;;;;;10007034;28;20115;-67
2022/03/14 22:23:51;;;;;;;3.42;1.90;;;12.10;58.50;;;;;;10015991;28;20056;-64
2022/03/14 22:28:41;;;;;;;5.35;2.22;;;12.10;58.40;;;;;;10008582;28;20034;-65
2022/03/14 22:33:32;;;;;;;4.88;2.55;;;12.00;59.00;;;;;;10008771;28;20025;-66
2022/03/14 22:38:25;;;;;;;5.80;2.30;;;12.10;58.80;;;;;;10017504;28;20491;-65
2022/03/14 22:43:15;;;;;;;3.85;1.77;;;12.10;58.80;;;;;;10003100;28;20046;-65
2022/03/14 22:48:06;;;;;;;4.93;1.98;;;12.10;58.90;;;;;;10008511;28;20046;-65
2022/03/14 22:52:57;;;;;;;3.58;2.17;;;12.10;59.10;;;;;;10005369;28;20413;-64
2022/03/14 22:57:48;;;;;;;6.07;1.95;;;12.00;59.60;;;;;;10015796;28;20563;-68
2022/03/14 23:12:59;;;;;;;6.47;2.03;;;11.90;60.30;;;;;;9996162;28;20400;-66
2022/03/14 23:17:50;;;;;;;2.45;1.48;;;11.80;60.60;;;;;;9994325;28;20054;-65
2022/03/14 23:22:40;;;;;;;5.93;2.13;;;11.80;60.60;;;;;;10017129;28;20148;-64
2022/03/14 23:27:31;;;;;;;5.45;2.15;;;11.80;61.10;;;;;;10014507;28;20460;-65
2022/03/14 23:32:22;;;;;;;4.13;1.63;;;11.70;61.40;;;;;;10011788;28;20034;-65
2022/03/14 23:37:12;;;;;;;2.85;2.15;;;11.70;61.10;;;;;;10012251;28;20564;-66
2022/03/14 23:42:04;;;;;;;4.10;2.00;;;11.70;61.30;;;;;;10010397;28;20038;-64
2022/03/14 23:46:55;;;;;;;3.42;1.90;;;11.70;61.50;;;;;;10007339;28;20029;-65
2022/03/14 23:51:46;;;;;;;4.70;1.98;;;11.70;61.50;;;;;;10014318;28;20426;-65
2022/03/14 23:56:36;;;;;;;4.05;2.58;;;11.60;61.80;;;;;;10003144;28;20045;-66
